createdAt,value
2018-05-17T00:00:24.111Z,65.49
2018-05-17T00:01:24.117Z,65.78
2018-05-17T00:02:24.132Z,66.20
2018-05-17T00:03:24.167Z,66.10
2018-05-17T00:04:24.209Z,66.07
2018-05-17T00:05:24.160Z,66.07
2018-05-17T00:06:24.154Z,65.69
2018-05-17T00:07:24.229Z,65.49
2018-05-17T00:08:24.180Z,65.59
2018-05-17T00:09:24.239Z,65.59
2018-05-17T00:10:24.199Z,65.59
2018-05-17T00:11:24.247Z,65.40
2018-05-17T00:12:24.231Z,65.11
2018-05-17T00:13:24.240Z,64.92
2018-05-17T00:14:24.300Z,65.30
2018-05-17T00:15:24.327Z,64.63
2018-05-17T00:16:24.298Z,64.43
2018-05-17T00:17:24.329Z,64.72
2018-05-17T00:18:24.307Z,64.15
2018-05-17T00:19:24.320Z,64.43
2018-05-17T00:20:25.222Z,64.82
2018-05-17T00:21:24.345Z,64.25
2018-05-17T00:22:24.387Z,64.43
2018-05-17T00:23:24.389Z,64.34
2018-05-17T00:24:24.385Z,64.43
2018-05-17T00:25:24.427Z,65.11
2018-05-17T00:26:24.438Z,65.11
2018-05-17T00:27:24.410Z,65.11
2018-05-17T00:28:24.417Z,65.01
2018-05-17T00:29:24.441Z,65.01
2018-05-17T00:30:24.485Z,64.82
2018-05-17T00:31:24.495Z,65.11
2018-05-17T00:32:24.478Z,64.92
2018-05-17T00:33:24.493Z,65.69
2018-05-17T00:34:24.492Z,65.78
2018-05-17T00:35:24.513Z,65.88
2018-05-17T00:36:24.557Z,65.94
2018-05-17T00:37:24.550Z,66.07
2018-05-17T00:38:24.587Z,65.78
2018-05-17T00:39:24.552Z,65.97
2018-05-17T00:40:24.579Z,66.23
2018-05-17T00:41:24.576Z,66.74
2018-05-17T00:42:24.587Z,66.55
2018-05-17T00:43:24.630Z,66.33
2018-05-17T00:44:24.636Z,66.52
2018-05-17T00:45:24.620Z,66.23
2018-05-17T00:46:24.633Z,66.61
2018-05-17T00:47:24.651Z,66.33
2018-05-17T00:48:24.709Z,66.61
2018-05-17T00:49:24.668Z,66.71
2018-05-17T00:50:24.692Z,66.33
2018-05-17T00:51:24.686Z,66.80
2018-05-17T00:52:25.015Z,66.80
2018-05-17T00:53:24.753Z,67.29
2018-05-17T00:54:24.785Z,67.00
2018-05-17T00:55:24.769Z,67.29
2018-05-17T00:56:24.756Z,67.00
2018-05-17T00:57:24.826Z,67.76
2018-05-17T00:58:24.871Z,67.00
2018-05-17T00:59:24.808Z,67.09
2018-05-17T01:00:24.799Z,67.29
2018-05-17T01:01:24.806Z,67.29
2018-05-17T01:02:24.822Z,67.00
2018-05-17T01:03:24.867Z,67.38
2018-05-17T01:04:24.849Z,67.38
2018-05-17T01:05:24.842Z,67.57
2018-05-17T01:06:24.921Z,66.80
2018-05-17T01:07:24.912Z,67.54
2018-05-17T01:08:24.942Z,67.63
2018-05-17T01:09:24.911Z,67.83
2018-05-17T01:10:24.936Z,67.83
2018-05-17T01:11:24.924Z,67.83
2018-05-17T01:12:24.951Z,67.63
2018-05-17T01:13:24.950Z,67.35
2018-05-17T01:14:24.987Z,67.83
2018-05-17T01:15:24.960Z,67.63
2018-05-17T01:16:24.993Z,68.02
2018-05-17T01:17:25.020Z,68.30
2018-05-17T01:18:25.019Z,68.21
2018-05-17T01:19:25.041Z,67.92
2018-05-17T01:20:25.025Z,68.21
2018-05-17T01:21:25.060Z,68.69
2018-05-17T01:22:25.058Z,68.30
2018-05-17T01:23:25.061Z,68.59
2018-05-17T01:24:25.134Z,68.40
2018-05-17T01:25:25.079Z,68.21
2018-05-17T01:26:25.089Z,68.30
2018-05-17T01:27:25.101Z,67.92
2018-05-17T01:28:25.152Z,68.88
2018-05-17T01:29:25.140Z,68.12
2018-05-17T01:30:25.176Z,68.69
2018-05-17T01:31:25.148Z,68.50
2018-05-17T01:32:25.191Z,68.88
2018-05-17T01:33:25.182Z,68.50
2018-05-17T01:34:25.189Z,68.69
2018-05-17T01:35:25.252Z,68.69
2018-05-17T01:36:25.219Z,68.40
2018-05-17T01:37:25.282Z,68.85
2018-05-17T01:38:25.228Z,69.13
2018-05-17T01:39:25.262Z,68.40
2018-05-17T01:40:25.246Z,69.07
2018-05-17T01:41:25.297Z,68.50
2018-05-17T01:42:25.281Z,68.98
2018-05-17T01:43:25.395Z,68.85
2018-05-17T01:44:25.300Z,68.12
2018-05-17T01:45:25.310Z,69.07
2018-05-17T01:46:25.371Z,68.46
2018-05-17T01:47:25.334Z,68.18
2018-05-17T01:48:25.348Z,68.08
2018-05-17T01:49:25.355Z,68.59
2018-05-17T01:50:25.410Z,68.18
2018-05-17T01:51:25.371Z,68.56
2018-05-17T01:52:25.418Z,68.59
2018-05-17T01:53:25.389Z,68.27
2018-05-17T01:54:25.422Z,68.27
2018-05-17T01:55:25.422Z,68.18
2018-05-17T01:56:25.455Z,67.89
2018-05-17T01:57:25.489Z,68.08
2018-05-17T01:58:25.462Z,67.99
2018-05-17T01:59:25.463Z,68.37
2018-05-17T02:00:25.475Z,68.18
2018-05-17T02:01:25.505Z,68.66
2018-05-17T02:02:25.546Z,68.18
2018-05-17T02:03:25.553Z,68.56
2018-05-17T02:04:25.558Z,68.56
2018-05-17T02:05:25.529Z,68.37
2018-05-17T02:06:25.537Z,68.85
2018-05-17T02:07:25.570Z,69.04
2018-05-17T02:08:25.589Z,69.04
2018-05-17T02:09:25.626Z,68.95
2018-05-17T02:10:25.589Z,68.95
2018-05-17T02:11:25.635Z,69.42
2018-05-17T02:12:25.627Z,69.42
2018-05-17T02:13:25.624Z,69.33
2018-05-17T02:14:25.642Z,69.23
2018-05-17T02:15:25.687Z,69.52
2018-05-17T02:16:25.726Z,69.13
2018-05-17T02:17:25.660Z,69.23
2018-05-17T02:18:25.687Z,69.81
2018-05-17T02:19:25.686Z,69.52
2018-05-17T02:20:25.744Z,69.62
2018-05-17T02:21:25.720Z,69.71
2018-05-17T02:22:25.733Z,69.52
2018-05-17T02:23:25.744Z,69.81
2018-05-17T02:24:25.751Z,69.42
2018-05-17T02:25:25.821Z,70.09
2018-05-17T02:26:25.774Z,70.35
2018-05-17T02:27:25.776Z,70.38
2018-05-17T02:28:25.785Z,70.00
2018-05-17T02:29:25.818Z,70.15
2018-05-17T02:30:25.825Z,70.44
2018-05-17T02:31:25.863Z,70.54
2018-05-17T02:32:25.841Z,70.44
2018-05-17T02:33:25.847Z,70.35
2018-05-17T02:34:25.880Z,70.64
2018-05-17T02:35:25.881Z,70.83
2018-05-17T02:36:25.929Z,70.54
2018-05-17T02:37:25.899Z,71.31
2018-05-17T02:38:25.904Z,71.40
2018-05-17T02:39:25.914Z,71.31
2018-05-17T02:40:25.928Z,71.21
2018-05-17T02:41:25.995Z,71.31
2018-05-17T02:42:25.940Z,71.31
2018-05-17T02:43:25.947Z,70.73
2018-05-17T02:44:25.981Z,70.83
2018-05-17T02:45:25.996Z,71.21
2018-05-17T02:46:25.995Z,71.21
2018-05-17T02:47:26.025Z,70.92
2018-05-17T02:48:26.021Z,71.78
2018-05-17T02:49:26.066Z,71.11
2018-05-17T02:50:26.044Z,72.07
2018-05-17T02:51:26.037Z,71.59
2018-05-17T02:52:26.132Z,71.88
2018-05-17T02:53:26.060Z,71.11
2018-05-17T02:54:26.082Z,71.21
2018-05-17T02:55:26.081Z,71.98
2018-05-17T02:56:26.137Z,72.17
2018-05-17T02:57:26.119Z,71.78
2018-05-17T02:58:26.149Z,71.78
2018-05-17T02:59:26.176Z,71.78
2018-05-17T03:00:26.157Z,72.17
2018-05-17T03:01:26.152Z,71.98
2018-05-17T03:02:26.167Z,72.45
2018-05-17T03:03:26.275Z,72.36
2018-05-17T03:04:26.233Z,71.59
2018-05-17T03:05:26.198Z,72.36
2018-05-17T03:06:26.213Z,72.27
2018-05-17T03:07:26.248Z,72.45
2018-05-17T03:08:26.267Z,73.13
2018-05-17T03:09:26.252Z,72.45
2018-05-17T03:10:26.249Z,72.07
2018-05-17T03:11:26.264Z,73.32
2018-05-17T03:12:26.277Z,73.19
2018-05-17T03:13:26.312Z,72.94
2018-05-17T03:14:26.354Z,73.41
2018-05-17T03:15:26.315Z,73.22
2018-05-17T03:16:26.317Z,73.51
2018-05-17T03:17:26.362Z,73.57
2018-05-17T03:18:26.378Z,73.47
2018-05-17T03:19:26.355Z,73.38
2018-05-17T03:20:26.360Z,73.28
2018-05-17T03:21:26.376Z,73.47
2018-05-17T03:22:26.422Z,73.57
2018-05-17T03:23:26.394Z,73.47
2018-05-17T03:24:26.412Z,73.66
2018-05-17T03:25:26.448Z,73.57
2018-05-17T03:26:26.428Z,73.57
2018-05-17T03:27:26.483Z,73.57
2018-05-17T03:28:26.461Z,73.47
2018-05-17T03:29:26.472Z,73.57
2018-05-17T03:30:26.468Z,74.24
2018-05-17T03:31:26.485Z,73.86
2018-05-17T03:32:26.535Z,73.86
2018-05-17T03:33:26.497Z,73.57
2018-05-17T03:34:26.553Z,73.57
2018-05-17T03:35:26.526Z,74.15
2018-05-17T03:36:26.581Z,73.57
2018-05-17T03:37:26.583Z,73.95
2018-05-17T03:38:26.593Z,73.66
2018-05-17T03:39:26.569Z,73.57
2018-05-17T03:40:26.585Z,73.38
2018-05-17T03:41:26.593Z,73.47
2018-05-17T03:42:26.611Z,73.66
2018-05-17T03:43:26.652Z,73.95
2018-05-17T03:44:26.619Z,73.76
2018-05-17T03:45:26.625Z,73.66
2018-05-17T03:46:26.634Z,73.66
2018-05-17T03:47:26.649Z,73.57
2018-05-17T03:48:26.708Z,73.57
2018-05-17T03:49:26.691Z,73.47
2018-05-17T03:50:26.687Z,74.15
2018-05-17T03:51:26.737Z,74.15
2018-05-17T03:52:26.698Z,74.05
2018-05-17T03:53:26.760Z,74.24
2018-05-17T03:54:26.777Z,74.33
2018-05-17T03:55:26.733Z,74.33
2018-05-17T03:56:26.752Z,74.15
2018-05-17T03:57:26.814Z,74.15
2018-05-17T03:58:27.055Z,73.66
2018-05-17T03:59:26.845Z,73.47
2018-05-17T04:00:26.830Z,73.47
2018-05-17T04:01:26.807Z,73.47
2018-05-17T04:02:26.806Z,73.28
2018-05-17T04:03:26.814Z,73.28
2018-05-17T04:04:26.868Z,73.19
2018-05-17T04:05:26.857Z,72.23
2018-05-17T04:06:26.847Z,72.80
2018-05-17T04:07:27.135Z,72.52
2018-05-17T04:08:26.922Z,72.80
2018-05-17T04:09:26.914Z,72.71
2018-05-17T04:10:26.897Z,72.13
2018-05-17T04:11:26.956Z,71.84
2018-05-17T04:12:26.922Z,71.56
2018-05-17T04:13:26.925Z,71.56
2018-05-17T04:14:26.998Z,71.66
2018-05-17T04:15:26.947Z,71.40
2018-05-17T04:16:26.977Z,71.08
2018-05-17T04:17:26.976Z,71.37
2018-05-17T04:18:27.001Z,70.73
2018-05-17T04:19:27.007Z,71.02
2018-05-17T04:20:27.075Z,70.98
2018-05-17T04:21:27.033Z,70.79
2018-05-17T04:22:27.087Z,70.83
2018-05-17T04:23:27.051Z,70.79
2018-05-17T04:24:27.067Z,70.79
2018-05-17T04:25:27.051Z,70.89
2018-05-17T04:26:27.065Z,70.70
2018-05-17T04:27:27.099Z,70.79
2018-05-17T04:28:27.130Z,70.89
2018-05-17T04:29:27.106Z,70.50
2018-05-17T04:30:27.121Z,70.25
2018-05-17T04:31:27.151Z,70.64
2018-05-17T04:32:27.139Z,69.96
2018-05-17T04:33:27.192Z,69.68
2018-05-17T04:34:27.156Z,69.33
2018-05-17T04:35:27.171Z,68.91
2018-05-17T04:36:27.206Z,69.20
2018-05-17T04:37:27.195Z,69.04
2018-05-17T04:38:27.247Z,67.99
2018-05-17T04:39:27.334Z,67.89
2018-05-17T04:40:27.298Z,67.50
2018-05-17T04:41:27.268Z,68.02
2018-05-17T04:42:27.307Z,66.86
2018-05-17T04:43:27.264Z,66.83
2018-05-17T04:44:27.287Z,66.93
2018-05-17T04:45:27.277Z,67.06
2018-05-17T04:46:27.381Z,66.10
2018-05-17T04:47:27.311Z,66.35
2018-05-17T04:48:27.324Z,66.67
2018-05-17T04:49:27.361Z,66.29
2018-05-17T04:50:27.351Z,66.58
2018-05-17T04:51:27.415Z,65.62
2018-05-17T04:52:27.373Z,65.43
2018-05-17T04:53:27.400Z,65.14
2018-05-17T04:54:27.389Z,64.31
2018-05-17T04:55:27.387Z,63.92
2018-05-17T04:56:27.409Z,63.19
2018-05-17T04:57:27.450Z,62.04
2018-05-17T04:58:27.431Z,61.58
2018-05-17T04:59:27.449Z,61.01
2018-05-17T05:00:27.534Z,60.66
2018-05-17T05:01:27.482Z,59.72
2018-05-17T05:02:27.541Z,58.67
2018-05-17T05:03:27.595Z,56.87
2018-05-17T05:04:27.498Z,56.38
2018-05-17T05:05:27.514Z,56.41
2018-05-17T05:06:27.518Z,56.03
2018-05-17T05:07:27.575Z,55.00
2018-05-17T05:08:27.583Z,54.44
2018-05-17T05:09:27.601Z,53.58
2018-05-17T05:10:27.609Z,52.52
2018-05-17T05:11:27.609Z,52.06
2018-05-17T05:12:27.609Z,51.97
2018-05-17T05:13:27.662Z,51.20
2018-05-17T05:14:27.632Z,50.42
2018-05-17T05:15:27.650Z,50.62
2018-05-17T05:16:27.712Z,50.45
2018-05-17T05:17:27.675Z,50.16
2018-05-17T05:18:27.806Z,49.70
2018-05-17T05:19:27.710Z,49.12
2018-05-17T05:20:27.770Z,49.15
2018-05-17T05:21:27.721Z,47.81
2018-05-17T05:22:27.733Z,46.78
2018-05-17T05:23:27.749Z,45.81
2018-05-17T05:24:27.785Z,45.62
2018-05-17T05:25:27.808Z,45.89
2018-05-17T05:26:27.844Z,46.27
2018-05-17T05:27:27.817Z,46.56
2018-05-17T05:28:27.831Z,45.57
2018-05-17T05:29:27.833Z,46.64
2018-05-17T05:30:27.944Z,46.34
2018-05-17T05:31:27.934Z,46.54
2018-05-17T05:32:27.863Z,46.44
2018-05-17T05:33:27.903Z,46.47
2018-05-17T05:34:27.916Z,45.52
2018-05-17T05:35:27.917Z,44.48
2018-05-17T05:36:27.978Z,44.09
2018-05-17T05:37:28.001Z,43.41
2018-05-17T05:38:27.963Z,43.41
2018-05-17T05:39:27.965Z,43.24
2018-05-17T05:40:28.009Z,42.86
2018-05-17T05:41:28.082Z,42.66
2018-05-17T05:42:28.030Z,42.20
2018-05-17T05:43:28.040Z,41.91
2018-05-17T05:44:28.045Z,42.07
2018-05-17T05:45:28.103Z,43.88
2018-05-17T05:46:28.065Z,45.21
2018-05-17T05:47:28.100Z,45.96
2018-05-17T05:48:28.187Z,46.25
2018-05-17T05:49:28.202Z,46.92
2018-05-17T05:50:28.135Z,46.81
2018-05-17T05:51:28.136Z,47.19
2018-05-17T05:52:28.161Z,47.67
2018-05-17T05:53:28.206Z,47.75
2018-05-17T05:54:28.202Z,47.75
2018-05-17T05:55:28.209Z,48.42
2018-05-17T05:56:28.223Z,48.79
2018-05-17T05:57:28.231Z,49.27
2018-05-17T05:58:28.352Z,49.65
2018-05-17T05:59:28.295Z,49.75
2018-05-17T06:00:28.283Z,50.11
2018-05-17T06:01:28.320Z,50.88
2018-05-17T06:02:28.325Z,50.69
2018-05-17T06:03:28.331Z,51.24
2018-05-17T06:04:28.345Z,51.34
2018-05-17T06:05:28.388Z,52.27
2018-05-17T06:06:28.354Z,52.95
2018-05-17T06:07:28.396Z,53.62
2018-05-17T06:08:28.441Z,53.43
2018-05-17T06:09:28.385Z,53.50
2018-05-17T06:10:28.476Z,54.08
2018-05-17T06:11:28.428Z,55.04
2018-05-17T06:12:28.447Z,55.49
2018-05-17T06:13:28.452Z,56.07
2018-05-17T06:14:28.463Z,56.07
2018-05-17T06:15:28.507Z,56.33
2018-05-17T06:16:28.500Z,55.85
2018-05-17T06:17:28.575Z,55.94
2018-05-17T06:18:28.527Z,56.81
2018-05-17T06:19:28.534Z,56.71
2018-05-17T06:20:28.588Z,57.17
2018-05-17T06:21:28.557Z,57.75
2018-05-17T06:22:28.560Z,57.84
2018-05-17T06:23:28.566Z,57.75
2018-05-17T06:24:28.578Z,57.36
2018-05-17T06:25:28.648Z,57.68
2018-05-17T06:26:28.603Z,58.03
2018-05-17T06:27:28.635Z,57.65
2018-05-17T06:28:28.641Z,58.61
2018-05-17T06:29:28.656Z,58.99
2018-05-17T06:30:28.794Z,58.61
2018-05-17T06:31:28.687Z,58.42
2018-05-17T06:32:28.682Z,58.42
2018-05-17T06:33:28.696Z,58.42
2018-05-17T06:34:28.701Z,58.70
2018-05-17T06:35:28.709Z,58.32
2018-05-17T06:36:28.785Z,58.80
2018-05-17T06:37:28.750Z,58.70
2018-05-17T06:38:28.776Z,58.89
2018-05-17T06:39:28.779Z,59.09
2018-05-17T06:40:28.783Z,58.42
2018-05-17T06:41:28.837Z,58.51
2018-05-17T06:42:28.839Z,58.89
2018-05-17T06:43:28.821Z,59.57
2018-05-17T06:44:28.867Z,59.57
2018-05-17T06:45:28.850Z,59.38
2018-05-17T06:46:28.857Z,59.28
2018-05-17T06:47:28.898Z,59.57
2018-05-17T06:48:28.886Z,59.66
2018-05-17T06:49:28.918Z,59.38
2018-05-17T06:50:28.913Z,59.57
2018-05-17T06:51:28.969Z,59.47
2018-05-17T06:52:28.960Z,59.38
2018-05-17T06:53:28.941Z,59.47
2018-05-17T06:54:28.983Z,59.57
2018-05-17T06:55:28.959Z,59.66
2018-05-17T06:56:28.969Z,60.05
2018-05-17T06:57:29.012Z,60.34
2018-05-17T06:58:29.021Z,60.05
2018-05-17T06:59:29.151Z,60.05
2018-05-17T07:00:29.066Z,60.14
2018-05-17T07:01:29.049Z,60.72
2018-05-17T07:02:29.085Z,60.72
2018-05-17T07:03:29.078Z,60.14
2018-05-17T07:04:29.110Z,60.14
2018-05-17T07:05:29.089Z,60.14
2018-05-17T07:06:29.092Z,60.72
2018-05-17T07:07:29.106Z,60.63
2018-05-17T07:08:29.167Z,60.05
2018-05-17T07:09:29.143Z,60.72
2018-05-17T07:10:29.205Z,60.60
2018-05-17T07:11:29.158Z,60.34
2018-05-17T07:12:29.176Z,60.34
2018-05-17T07:13:29.218Z,59.66
2018-05-17T07:14:29.212Z,60.05
2018-05-17T07:15:29.207Z,60.14
2018-05-17T07:16:29.250Z,60.14
2018-05-17T07:17:29.225Z,59.86
2018-05-17T07:18:29.426Z,59.76
2018-05-17T07:19:29.258Z,59.95
2018-05-17T07:20:29.313Z,59.76
2018-05-17T07:21:29.365Z,60.14
2018-05-17T07:22:29.300Z,60.14
2018-05-17T07:23:29.313Z,59.86
2018-05-17T07:24:29.341Z,59.38
2018-05-17T07:25:29.320Z,59.66
2018-05-17T07:26:29.380Z,60.43
2018-05-17T07:27:29.353Z,60.24
2018-05-17T07:28:29.410Z,60.02
2018-05-17T07:29:29.377Z,60.31
2018-05-17T07:30:29.394Z,60.21
2018-05-17T07:31:29.538Z,60.11
2018-05-17T07:32:29.422Z,60.31
2018-05-17T07:33:29.422Z,60.31
2018-05-17T07:34:29.479Z,60.60
2018-05-17T07:35:29.466Z,60.31
2018-05-17T07:36:29.501Z,61.17
2018-05-17T07:37:29.516Z,61.84
2018-05-17T07:38:29.495Z,61.55
2018-05-17T07:39:29.523Z,61.36
2018-05-17T07:40:29.515Z,61.27
2018-05-17T07:41:29.519Z,61.55
2018-05-17T07:42:29.576Z,61.65
2018-05-17T07:43:29.548Z,61.84
2018-05-17T07:44:29.573Z,61.68
2018-05-17T07:45:29.561Z,61.58
2018-05-17T07:46:29.610Z,61.20
2018-05-17T07:47:29.635Z,60.63
2018-05-17T07:48:29.598Z,60.63
2018-05-17T07:49:29.641Z,60.53
2018-05-17T07:50:29.662Z,60.34
2018-05-17T07:51:29.716Z,60.14
2018-05-17T07:52:29.698Z,60.63
2018-05-17T07:53:29.672Z,60.53
2018-05-17T07:54:29.690Z,60.05
2018-05-17T07:55:29.788Z,60.43
2018-05-17T07:56:29.699Z,60.63
2018-05-17T07:57:29.708Z,60.72
2018-05-17T07:58:29.737Z,61.11
2018-05-17T07:59:29.778Z,61.01
2018-05-17T08:00:29.837Z,61.23
2018-05-17T08:01:29.769Z,60.53
2018-05-17T08:02:29.782Z,60.63
2018-05-17T08:03:29.791Z,60.53
2018-05-17T08:04:29.830Z,60.63
2018-05-17T08:05:29.821Z,60.53
2018-05-17T08:06:29.827Z,60.56
2018-05-17T08:07:29.837Z,60.37
2018-05-17T08:08:29.857Z,60.37
2018-05-17T08:09:29.997Z,60.66
2018-05-17T08:10:29.891Z,60.37
2018-05-17T08:11:29.883Z,59.99
2018-05-17T08:12:29.906Z,60.17
2018-05-17T08:13:29.915Z,60.17
2018-05-17T08:14:29.972Z,60.37
2018-05-17T08:15:29.934Z,60.75
2018-05-17T08:16:29.940Z,60.17
2018-05-17T08:17:29.954Z,59.22
2018-05-17T08:18:29.980Z,58.83
2018-05-17T08:19:30.009Z,59.89
2018-05-17T08:20:30.031Z,59.50
2018-05-17T08:21:30.035Z,58.64
2018-05-17T08:22:30.046Z,59.31
2018-05-17T08:23:30.038Z,59.60
2018-05-17T08:24:30.033Z,59.69
2018-05-17T08:25:30.049Z,59.41
2018-05-17T08:26:30.069Z,59.79
2018-05-17T08:27:30.131Z,59.12
2018-05-17T08:28:30.110Z,58.73
2018-05-17T08:29:30.126Z,58.92
2018-05-17T08:30:30.133Z,58.83
2018-05-17T08:31:30.148Z,59.50
2018-05-17T08:32:30.181Z,59.99
2018-05-17T08:33:30.162Z,59.50
2018-05-17T08:34:30.179Z,59.31
2018-05-17T08:35:30.192Z,59.31
2018-05-17T08:36:30.362Z,59.72
2018-05-17T08:37:30.213Z,59.02
2018-05-17T08:38:30.213Z,58.67
2018-05-17T08:39:30.238Z,58.73
2018-05-17T08:40:30.259Z,58.83
2018-05-17T08:41:30.301Z,58.95
2018-05-17T08:42:30.358Z,58.86
2018-05-17T08:43:30.297Z,58.67
2018-05-17T08:44:30.296Z,58.57
2018-05-17T08:45:30.549Z,58.28
2018-05-17T08:46:30.311Z,58.67
2018-05-17T08:47:30.374Z,57.99
2018-05-17T08:48:30.433Z,58.67
2018-05-17T08:49:30.381Z,58.37
2018-05-17T08:50:30.371Z,57.80
2018-05-17T08:51:30.413Z,57.80
2018-05-17T08:52:30.434Z,57.70
2018-05-17T08:53:30.406Z,57.51
2018-05-17T08:54:30.736Z,57.80
2018-05-17T08:55:30.424Z,57.22
2018-05-17T08:56:30.515Z,57.99
2018-05-17T08:57:30.514Z,57.90
2018-05-17T08:58:30.573Z,57.70
2018-05-17T08:59:30.488Z,57.80
2018-05-17T09:00:30.512Z,57.70
2018-05-17T09:01:30.510Z,57.32
2018-05-17T09:02:30.576Z,57.80
2018-05-17T09:03:30.541Z,56.93
2018-05-17T09:04:30.547Z,57.99
2018-05-17T09:05:30.570Z,57.64
2018-05-17T09:06:30.608Z,56.93
2018-05-17T09:07:30.819Z,56.77
2018-05-17T09:08:30.595Z,57.06
2018-05-17T09:09:30.985Z,57.45
2018-05-17T09:10:30.629Z,56.96
2018-05-17T09:11:30.680Z,57.15
2018-05-17T09:12:30.648Z,57.64
2018-05-17T09:13:30.718Z,58.02
2018-05-17T09:14:30.709Z,58.50
2018-05-17T09:15:30.703Z,58.98
2018-05-17T09:16:30.714Z,58.60
2018-05-17T09:17:30.776Z,58.98
2018-05-17T09:18:30.728Z,59.75
2018-05-17T09:19:30.800Z,59.66
2018-05-17T09:20:30.847Z,59.37
2018-05-17T09:21:30.767Z,60.04
2018-05-17T09:22:30.803Z,59.75
2018-05-17T09:23:30.794Z,60.33
2018-05-17T09:24:30.852Z,60.24
2018-05-17T09:25:30.822Z,60.14
2018-05-17T09:26:30.845Z,60.62
2018-05-17T09:27:30.852Z,60.14
2018-05-17T09:28:30.860Z,60.14
2018-05-17T09:29:30.909Z,60.24
2018-05-17T09:30:30.876Z,60.36
2018-05-17T09:31:30.888Z,60.17
2018-05-17T09:32:30.930Z,60.84
2018-05-17T09:33:30.911Z,60.84
2018-05-17T09:34:30.968Z,60.07
2018-05-17T09:35:30.956Z,60.36
2018-05-17T09:36:30.952Z,60.75
2018-05-17T09:37:31.020Z,60.65
2018-05-17T09:38:31.028Z,60.62
2018-05-17T09:39:30.982Z,61.04
2018-05-17T09:40:31.011Z,60.94
2018-05-17T09:41:31.096Z,60.91
2018-05-17T09:42:31.041Z,61.13
2018-05-17T09:43:31.081Z,60.65
2018-05-17T09:44:31.065Z,60.94
2018-05-17T09:45:31.082Z,60.65
2018-05-17T09:46:31.103Z,60.27
2018-05-17T09:47:31.182Z,60.07
2018-05-17T09:48:31.103Z,60.46
2018-05-17T09:49:31.176Z,60.55
2018-05-17T09:50:31.133Z,60.65
2018-05-17T09:51:31.163Z,60.62
2018-05-17T09:52:31.159Z,60.91
2018-05-17T09:53:31.186Z,60.75
2018-05-17T09:54:31.225Z,60.94
2018-05-17T09:55:31.195Z,60.55
2018-05-17T09:56:31.221Z,60.75
2018-05-17T09:57:31.231Z,61.04
2018-05-17T09:58:31.240Z,60.75
2018-05-17T09:59:31.284Z,60.07
2018-05-17T10:00:31.257Z,60.94
2018-05-17T10:01:31.311Z,61.04
2018-05-17T10:02:31.288Z,60.84
2018-05-17T10:03:31.313Z,60.94
2018-05-17T10:04:31.368Z,60.65
2018-05-17T10:05:31.325Z,60.84
2018-05-17T10:06:31.333Z,60.46
2018-05-17T10:07:31.345Z,60.27
2018-05-17T10:08:31.385Z,60.17
2018-05-17T10:09:31.466Z,59.49
2018-05-17T10:10:31.451Z,59.78
2018-05-17T10:11:31.409Z,59.11
2018-05-17T10:12:31.412Z,58.53
2018-05-17T10:13:31.473Z,58.63
2018-05-17T10:14:31.504Z,58.53
2018-05-17T10:15:31.529Z,59.01
2018-05-17T10:16:31.472Z,59.11
2018-05-17T10:17:31.500Z,59.49
2018-05-17T10:18:31.561Z,59.30
2018-05-17T10:19:31.509Z,58.85
2018-05-17T10:20:31.520Z,58.44
2018-05-17T10:21:31.564Z,58.53
2018-05-17T10:22:31.550Z,58.34
2018-05-17T10:23:31.591Z,58.47
2018-05-17T10:24:31.605Z,58.44
2018-05-17T10:25:31.598Z,58.56
2018-05-17T10:26:31.604Z,58.72
2018-05-17T10:27:31.639Z,58.34
2018-05-17T10:28:31.641Z,58.72
2018-05-17T10:29:31.741Z,58.63
2018-05-17T10:30:32.034Z,59.59
2018-05-17T10:31:31.668Z,59.30
2018-05-17T10:32:31.731Z,59.30
2018-05-17T10:33:31.816Z,59.78
2018-05-17T10:34:31.716Z,60.17
2018-05-17T10:35:31.745Z,59.78
2018-05-17T10:36:31.842Z,59.78
2018-05-17T10:37:31.757Z,60.07
2018-05-17T10:38:31.815Z,59.97
2018-05-17T10:39:31.772Z,59.88
2018-05-17T10:40:32.029Z,60.17
2018-05-17T10:41:31.835Z,59.78
2018-05-17T10:42:31.821Z,59.88
2018-05-17T10:43:31.819Z,59.78
2018-05-17T10:44:31.972Z,60.27
2018-05-17T10:45:31.926Z,60.07
2018-05-17T10:46:31.856Z,60.46
2018-05-17T10:47:31.987Z,61.13
2018-05-17T10:48:31.899Z,60.46
2018-05-17T10:49:31.970Z,60.84
2018-05-17T10:50:31.958Z,60.75
2018-05-17T10:51:31.954Z,60.94
2018-05-17T10:52:32.129Z,60.68
2018-05-17T10:53:32.007Z,60.20
2018-05-17T10:54:32.158Z,60.30
2018-05-17T10:55:32.033Z,60.30
2018-05-17T10:56:32.062Z,60.58
2018-05-17T10:57:32.127Z,59.91
2018-05-17T10:58:32.073Z,59.04
2018-05-17T10:59:32.120Z,59.91
2018-05-17T11:00:32.067Z,59.81
2018-05-17T11:01:32.136Z,59.62
2018-05-17T11:02:32.210Z,59.72
2018-05-17T11:03:32.212Z,59.23
2018-05-17T11:04:32.127Z,59.91
2018-05-17T11:05:32.156Z,58.65
2018-05-17T11:06:32.153Z,59.14
2018-05-17T11:07:32.236Z,58.95
2018-05-17T11:08:32.248Z,58.65
2018-05-17T11:09:32.152Z,58.85
2018-05-17T11:10:32.211Z,58.85
2018-05-17T11:11:32.305Z,58.56
2018-05-17T11:12:32.269Z,58.75
2018-05-17T11:13:32.230Z,58.47
2018-05-17T11:14:32.307Z,58.47
2018-05-17T11:15:32.916Z,58.69
2018-05-17T11:16:32.282Z,57.98
2018-05-17T11:17:32.371Z,57.82
2018-05-17T11:18:32.395Z,58.11
2018-05-17T11:19:32.368Z,57.14
2018-05-17T11:20:32.354Z,57.24
2018-05-17T11:21:32.384Z,57.72
2018-05-17T11:22:32.389Z,57.53
2018-05-17T11:23:32.354Z,57.24
2018-05-17T11:24:32.476Z,57.34
2018-05-17T11:25:32.421Z,57.24
2018-05-17T11:26:32.445Z,57.14
2018-05-17T11:27:32.446Z,56.85
2018-05-17T11:28:32.460Z,56.95
2018-05-17T11:29:32.528Z,56.95
2018-05-17T11:30:32.551Z,56.76
2018-05-17T11:31:32.459Z,56.37
2018-05-17T11:32:32.498Z,57.05
2018-05-17T11:33:32.506Z,56.66
2018-05-17T11:34:32.487Z,57.17
2018-05-17T11:35:32.662Z,56.85
2018-05-17T11:36:32.614Z,57.05
2018-05-17T11:37:32.593Z,56.57
2018-05-17T11:38:32.565Z,56.57
2018-05-17T11:39:32.610Z,57.14
2018-05-17T11:40:32.585Z,57.14
2018-05-17T11:41:32.628Z,56.66
2018-05-17T11:42:32.622Z,56.59
2018-05-17T11:43:32.638Z,57.05
2018-05-17T11:44:32.653Z,57.05
2018-05-17T11:45:32.659Z,56.95
2018-05-17T11:46:32.705Z,57.17
2018-05-17T11:47:32.760Z,57.14
2018-05-17T11:48:32.690Z,56.76
2018-05-17T11:49:32.695Z,57.05
2018-05-17T11:50:32.732Z,56.85
2018-05-17T11:51:32.746Z,57.24
2018-05-17T11:52:32.886Z,56.88
2018-05-17T11:53:32.872Z,57.27
2018-05-17T11:54:32.904Z,57.37
2018-05-17T11:55:32.896Z,56.98
2018-05-17T11:56:32.813Z,56.69
2018-05-17T11:57:32.918Z,56.79
2018-05-17T11:58:32.884Z,57.07
2018-05-17T11:59:32.893Z,57.37
2018-05-17T12:00:32.913Z,57.46
2018-05-17T12:01:32.974Z,57.27
2018-05-17T12:02:32.953Z,57.27
2018-05-17T12:03:32.970Z,57.17
2018-05-17T12:04:32.914Z,56.21
2018-05-17T12:05:32.904Z,56.88
2018-05-17T12:06:32.963Z,56.98
2018-05-17T12:07:33.100Z,56.21
2018-05-17T12:08:32.953Z,56.69
2018-05-17T12:09:32.975Z,56.69
2018-05-17T12:10:33.015Z,56.59
2018-05-17T12:11:32.994Z,56.49
2018-05-17T12:12:33.013Z,55.92
2018-05-17T12:13:33.015Z,56.40
2018-05-17T12:14:33.077Z,55.92
2018-05-17T12:15:33.111Z,56.14
2018-05-17T12:16:33.077Z,56.21
2018-05-17T12:17:33.078Z,56.40
2018-05-17T12:18:33.090Z,56.01
2018-05-17T12:19:33.147Z,56.49
2018-05-17T12:20:33.133Z,55.92
2018-05-17T12:21:33.149Z,55.92
2018-05-17T12:22:33.183Z,56.21
2018-05-17T12:23:33.168Z,55.63
2018-05-17T12:24:33.232Z,55.73
2018-05-17T12:25:33.202Z,56.30
2018-05-17T12:26:33.196Z,55.94
2018-05-17T12:27:33.238Z,55.92
2018-05-17T12:28:33.245Z,55.73
2018-05-17T12:29:33.295Z,56.40
2018-05-17T12:30:33.259Z,56.40
2018-05-17T12:31:33.714Z,55.82
2018-05-17T12:32:33.358Z,55.92
2018-05-17T12:33:33.420Z,55.92
2018-05-17T12:34:33.301Z,55.36
2018-05-17T12:35:33.370Z,55.36
2018-05-17T12:36:33.387Z,55.46
2018-05-17T12:37:33.375Z,54.79
2018-05-17T12:38:33.368Z,55.46
2018-05-17T12:39:33.379Z,55.18
2018-05-17T12:40:33.436Z,55.27
2018-05-17T12:41:33.456Z,55.27
2018-05-17T12:42:33.468Z,54.69
2018-05-17T12:43:33.431Z,54.50
2018-05-17T12:44:33.471Z,55.08
2018-05-17T12:45:33.464Z,54.88
2018-05-17T12:46:33.484Z,55.27
2018-05-17T12:47:33.567Z,54.31
2018-05-17T12:48:33.508Z,54.40
2018-05-17T12:49:33.511Z,53.92
2018-05-17T12:50:33.534Z,53.53
2018-05-17T12:51:33.550Z,54.11
2018-05-17T12:52:33.616Z,54.02